Private Wetterstation Nrnberg - Katzwang
Wetterdaten: Juli 2016
Datum Temp. A. Feuchte A. Luftdruck Regen Wind Richtung Taupunkt Windchill Windben
01.07.2016 22,7 C 66 % 1014 hPa 1,0 l/m 6,9 km/h W-NW 15,6 C 22,4 C 5,7 km/h
02.07.2016 16,6 C 78 % 1014 hPa 4,1 l/m 3,5 km/h N-NW 12,7 C 16,0 C 7,6 km/h
03.07.2016 15,9 C 65 % 1019 hPa 0,0 l/m 5,7 km/h NW 9,1 C 14,8 C 4,7 km/h
04.07.2016 20,3 C 62 % 1018 hPa 0,0 l/m 2,2 km/h O-NO 12,4 C 20,1 C 1,8 km/h
05.07.2016 21,1 C 61 % 1014 hPa 0,0 l/m 5,3 km/h N-NW 12,9 C 20,7 C 8,6 km/h
06.07.2016 17,5 C 59 % 1018 hPa 0,0 l/m 7,5 km/h N-NW 9,1 C 16,0 C 6,2 km/h
07.07.2016 20,3 C 54 % 1018 hPa 0,0 l/m 6,0 km/h NW 10,1 C 19,8 C 5,0 km/h
08.07.2016 23,5 C 55 % 1015 hPa 0,0 l/m 2,2 km/h N-NW 13,3 C 23,5 C 1,8 km/h
09.07.2016 22,4 C 63 % 1017 hPa 4,7 l/m 3,8 km/h N-NW 14,7 C 22,1 C 3,1 km/h
10.07.2016 25,3 C 60 % 1012 hPa 0,0 l/m 0,0 km/h SW 16,3 C 25,3 C 0,0 km/h
11.07.2016 24,2 C 68 % 1011 hPa 1,6 l/m 9,1 km/h NW 17,2 C 23,0 C 7,6 km/h
12.07.2016 19,1 C 75 % 1012 hPa 0,5 l/m 1,9 km/h N-NW 14,4 C 19,0 C 1,6 km/h
13.07.2016 16,3 C 78 % 1011 hPa 5,7 l/m 5,4 km/h S-SW 12,3 C 15,9 C 4,5 km/h
14.07.2016 13,9 C 74 % 1016 hPa 10,4 l/m 10,4 km/h N-NW 9,2 C 11,1 C 8,6 km/h
15.07.2016 14,2 C 69 % 1022 hPa 0,0 l/m 7,3 km/h N-NW 8,5 C 12,5 C 6,0 km/h
16.07.2016 18,9 C 62 % 1022 hPa 0,0 l/m 1,0 km/h NW 11,0 C 18,9 C 0,8 km/h
17.07.2016 22,0 C 65 % 1019 hPa 0,0 l/m 0,0 km/h NW 14,8 C 22,0 C 0,0 km/h
18.07.2016 23,1 C 58 % 1019 hPa 0,0 l/m 12,3 km/h N-NW 14,2 C 22,4 C 11,4 km/h
19.07.2016 24,1 C 57 % 1019 hPa 0,0 l/m 4,4 km/h O-NO 14,5 C 24,1 C 3,6 km/h
20.07.2016 25,4 C 56 % 1014 hPa 0,0 l/m 1,9 km/h O 15,4 C 25,4 C 1,6 km/h
21.07.2016 21,6 C 73 % 1014 hPa 3,1 l/m 4,8 km/h N-NW 16,5 C 21,2 C 3,9 km/h
22.07.2016 23,5 C 67 % 1014 hPa 0,0 l/m 1,9 km/h O-NO 16,6 C 23,4 C 1,6 km/h
23.07.2016 21,3 C 77 % 1015 hPa 12,9 l/m 4,1 km/h N-NW 17,0 C 20,8 C 3,4 km/h
24.07.2016 22,4 C 74 % 1016 hPa 0,0 l/m 2,2 km/h N-NW 17,3 C 22,3 C 1,8 km/h
25.07.2016 23,0 C 73 % 1016 hPa 0,0 l/m 10,8 km/h NW 17,8 C 22,4 C 11,3 km/h
26.07.2016 22,4 C 73 % 1016 hPa 1,6 l/m 0,6 km/h O 17,3 C 22,4 C 0,5 km/h
27.07.2016 20,3 C 75 % 1015 hPa 11,4 l/m 0,0 km/h N-NW 15,7 C 20,3 C 0,0 km/h
28.07.2016 21,2 C 68 % 1014 hPa 0,0 l/m 5,3 km/h W-NW 14,8 C 20,8 C 4,4 km/h
29.07.2016 22,0 C 67 % 1012 hPa 2,6 l/m 3,5 km/h N-NW 15,3 C 21,7 C 2,9 km/h
30.07.2016 23,1 C 62 % 1012 hPa 0,0 l/m 5,9 km/h N-NW 15,1 C 22,9 C 4,9 km/h
31.07.2016 19,0 C 76 % 1011 hPa 5,2 l/m 0,0 km/h S 14,6 C 19,0 C 0,0 km/h
Min-Datum 03.07.16 20.07.16 11.07.16 13 Tage 01.07.16 - 16.07.16 14.07.16 01.07.16
Min-Zeit 05:30 17:00 16:00 - 00:10 - 04:20 11:10 00:10
Minimum 8,8 C 32 % 1009 hPa - 0,0 km/h - 5,5 C 1,2 C 0,0 km/h
Max-Datum 20.07.16 03.07.16 15.07.16 23.07.16 05.07.16 - 24.07.16 20.07.16 05.07.16
Max-Zeit 13:50 07:10 13:20 06:00 16:50 - 15:10 13:50 17:00
Maximum 34,9 C 83 % 1024 hPa 12,9 l/m 69,3 km/h
N-NW
- 21,1 C 34,9 C 74,2 km/h
N-NW
Durchschnitt 20,9 C 67 % 1016 hPa #64,7 l/m 4,4 km/h N-NW 14,1 C 20,4 C 4,0 km/h

Durchschnitt Minimum Temp.14,6 C
Durchschnitt Maximum Temp.27,9 C